sensor_id;sensor_type;location;lat;lon;timestamp;temperature;humidity
14172;DHT22;7165;52.388;4.928;2023-04-03T00:01:58;5.50;99.90
14172;DHT22;7165;52.388;4.928;2023-04-03T00:04:25;5.50;99.90
14172;DHT22;7165;52.388;4.928;2023-04-03T00:06:53;5.50;99.90
14172;DHT22;7165;52.388;4.928;2023-04-03T00:09:20;5.50;99.90
14172;DHT22;7165;52.388;4.928;2023-04-03T00:11:46;5.50;99.90
14172;DHT22;7165;52.388;4.928;2023-04-03T00:14:13;5.40;99.90
14172;DHT22;7165;52.388;4.928;2023-04-03T00:16:40;5.40;99.90
14172;DHT22;7165;52.388;4.928;2023-04-03T00:19:06;5.40;99.90
14172;DHT22;7165;52.388;4.928;2023-04-03T00:21:33;5.40;99.90
14172;DHT22;7165;52.388;4.928;2023-04-03T00:24:01;5.30;99.90
14172;DHT22;7165;52.388;4.928;2023-04-03T00:26:28;5.30;99.90
14172;DHT22;7165;52.388;4.928;2023-04-03T00:28:54;5.30;99.90
14172;DHT22;7165;52.388;4.928;2023-04-03T00:31:21;5.30;99.90
14172;DHT22;7165;52.388;4.928;2023-04-03T00:33:48;5.30;99.90
14172;DHT22;7165;52.388;4.928;2023-04-03T00:36:14;5.20;99.90
14172;DHT22;7165;52.388;4.928;2023-04-03T00:38:41;5.30;99.90
14172;DHT22;7165;52.388;4.928;2023-04-03T00:41:09;5.30;99.90
14172;DHT22;7165;52.388;4.928;2023-04-03T00:43:35;5.20;99.90
14172;DHT22;7165;52.388;4.928;2023-04-03T00:46:03;5.20;99.90
14172;DHT22;7165;52.388;4.928;2023-04-03T00:48:30;5.10;99.90
14172;DHT22;7165;52.388;4.928;2023-04-03T00:50:57;5.20;99.90
14172;DHT22;7165;52.388;4.928;2023-04-03T00:53:25;5.10;99.90
14172;DHT22;7165;52.388;4.928;2023-04-03T00:55:52;5.10;99.90
14172;DHT22;7165;52.388;4.928;2023-04-03T00:58:22;5.10;99.90
14172;DHT22;7165;52.388;4.928;2023-04-03T01:00:53;5.10;99.90
14172;DHT22;7165;52.388;4.928;2023-04-03T01:03:22;5.00;99.90
14172;DHT22;7165;52.388;4.928;2023-04-03T01:05:49;5.10;99.90
14172;DHT22;7165;52.388;4.928;2023-04-03T01:08:15;5.00;99.90
14172;DHT22;7165;52.388;4.928;2023-04-03T01:10:42;5.00;99.90
14172;DHT22;7165;52.388;4.928;2023-04-03T01:13:19;5.00;99.90
14172;DHT22;7165;52.388;4.928;2023-04-03T01:15:47;5.00;99.90
14172;DHT22;7165;52.388;4.928;2023-04-03T01:18:14;5.00;99.90
14172;DHT22;7165;52.388;4.928;2023-04-03T01:21:15;4.90;99.90
14172;DHT22;7165;52.388;4.928;2023-04-03T01:26:43;4.90;99.90
14172;DHT22;7165;52.388;4.928;2023-04-03T01:29:10;4.90;99.90
14172;DHT22;7165;52.388;4.928;2023-04-03T01:31:48;4.80;99.90
14172;DHT22;7165;52.388;4.928;2023-04-03T01:34:15;4.80;99.90
14172;DHT22;7165;52.388;4.928;2023-04-03T01:36:41;4.80;99.90
14172;DHT22;7165;52.388;4.928;2023-04-03T01:39:08;4.70;99.90
14172;DHT22;7165;52.388;4.928;2023-04-03T01:41:35;4.70;99.90
14172;DHT22;7165;52.388;4.928;2023-04-03T01:44:02;4.70;99.90
14172;DHT22;7165;52.388;4.928;2023-04-03T01:46:29;4.70;99.90
14172;DHT22;7165;52.388;4.928;2023-04-03T01:48:57;4.60;99.90
14172;DHT22;7165;52.388;4.928;2023-04-03T01:51:24;4.60;99.90
14172;DHT22;7165;52.388;4.928;2023-04-03T01:53:50;4.60;99.90
14172;DHT22;7165;52.388;4.928;2023-04-03T01:56:17;4.60;99.90
14172;DHT22;7165;52.388;4.928;2023-04-03T01:58:44;4.60;99.90
14172;DHT22;7165;52.388;4.928;2023-04-03T02:01:10;4.60;99.90
14172;DHT22;7165;52.388;4.928;2023-04-03T02:03:37;4.50;99.90
14172;DHT22;7165;52.388;4.928;2023-04-03T02:06:06;4.50;99.90
14172;DHT22;7165;52.388;4.928;2023-04-03T02:08:32;4.50;99.90
14172;DHT22;7165;52.388;4.928;2023-04-03T02:10:59;4.50;99.90
14172;DHT22;7165;52.388;4.928;2023-04-03T02:13:26;4.40;99.90
14172;DHT22;7165;52.388;4.928;2023-04-03T02:15:53;4.40;99.90
14172;DHT22;7165;52.388;4.928;2023-04-03T02:18:20;4.30;99.90
14172;DHT22;7165;52.388;4.928;2023-04-03T02:20:46;4.20;99.90
14172;DHT22;7165;52.388;4.928;2023-04-03T02:23:15;4.20;99.90
14172;DHT22;7165;52.388;4.928;2023-04-03T02:25:41;4.20;99.90
14172;DHT22;7165;52.388;4.928;2023-04-03T02:28:08;4.20;99.90
14172;DHT22;7165;52.388;4.928;2023-04-03T02:30:34;4.20;99.90
14172;DHT22;7165;52.388;4.928;2023-04-03T02:33:01;4.10;99.90
14172;DHT22;7165;52.388;4.928;2023-04-03T02:35:28;4.20;99.90
14172;DHT22;7165;52.388;4.928;2023-04-03T02:37:54;4.20;99.90
14172;DHT22;7165;52.388;4.928;2023-04-03T02:40:22;4.10;99.90
14172;DHT22;7165;52.388;4.928;2023-04-03T02:42:49;4.10;99.90
14172;DHT22;7165;52.388;4.928;2023-04-03T02:45:16;4.10;99.90
14172;DHT22;7165;52.388;4.928;2023-04-03T02:47:42;4.00;99.90
14172;DHT22;7165;52.388;4.928;2023-04-03T02:50:09;4.00;99.90
14172;DHT22;7165;52.388;4.928;2023-04-03T02:52:36;4.00;99.90
14172;DHT22;7165;52.388;4.928;2023-04-03T02:55:03;3.90;99.90
14172;DHT22;7165;52.388;4.928;2023-04-03T02:57:31;3.90;99.90
14172;DHT22;7165;52.388;4.928;2023-04-03T02:59:58;3.90;99.90
14172;DHT22;7165;52.388;4.928;2023-04-03T03:02:25;3.80;99.90
14172;DHT22;7165;52.388;4.928;2023-04-03T03:04:51;3.80;99.90
14172;DHT22;7165;52.388;4.928;2023-04-03T03:07:18;3.80;99.90
14172;DHT22;7165;52.388;4.928;2023-04-03T03:09:45;3.70;99.90
14172;DHT22;7165;52.388;4.928;2023-04-03T03:12:11;3.70;99.90
14172;DHT22;7165;52.388;4.928;2023-04-03T03:14:39;3.70;99.90
14172;DHT22;7165;52.388;4.928;2023-04-03T03:17:08;3.60;99.90
14172;DHT22;7165;52.388;4.928;2023-04-03T03:19:34;3.60;99.90
14172;DHT22;7165;52.388;4.928;2023-04-03T03:22:01;3.50;99.90
14172;DHT22;7165;52.388;4.928;2023-04-03T03:24:28;3.50;99.90
14172;DHT22;7165;52.388;4.928;2023-04-03T03:26:54;3.60;99.90
14172;DHT22;7165;52.388;4.928;2023-04-03T03:29:21;3.60;99.90
14172;DHT22;7165;52.388;4.928;2023-04-03T03:31:50;3.50;99.90
14172;DHT22;7165;52.388;4.928;2023-04-03T03:34:16;3.40;99.90
14172;DHT22;7165;52.388;4.928;2023-04-03T03:36:43;3.40;99.90
14172;DHT22;7165;52.388;4.928;2023-04-03T03:39:10;3.40;99.90
14172;DHT22;7165;52.388;4.928;2023-04-03T03:41:36;3.40;99.90
14172;DHT22;7165;52.388;4.928;2023-04-03T03:44:03;3.30;99.90
14172;DHT22;7165;52.388;4.928;2023-04-03T03:46:30;3.30;99.90
14172;DHT22;7165;52.388;4.928;2023-04-03T03:48:58;3.30;99.90
14172;DHT22;7165;52.388;4.928;2023-04-03T03:51:25;3.30;99.90
14172;DHT22;7165;52.388;4.928;2023-04-03T03:53:52;3.30;99.90
14172;DHT22;7165;52.388;4.928;2023-04-03T03:56:19;3.30;99.90
14172;DHT22;7165;52.388;4.928;2023-04-03T03:58:45;3.30;99.90
14172;DHT22;7165;52.388;4.928;2023-04-03T04:01:12;3.30;99.90
14172;DHT22;7165;52.388;4.928;2023-04-03T04:03:39;3.30;99.90
14172;DHT22;7165;52.388;4.928;2023-04-03T04:06:07;3.30;99.90
14172;DHT22;7165;52.388;4.928;2023-04-03T04:08:33;3.30;99.90
14172;DHT22;7165;52.388;4.928;2023-04-03T04:11:00;3.40;99.90
14172;DHT22;7165;52.388;4.928;2023-04-03T04:13:27;3.40;99.90
14172;DHT22;7165;52.388;4.928;2023-04-03T04:15:53;3.40;99.90
14172;DHT22;7165;52.388;4.928;2023-04-03T04:18:20;3.40;99.90
14172;DHT22;7165;52.388;4.928;2023-04-03T04:20:48;3.40;99.90
14172;DHT22;7165;52.388;4.928;2023-04-03T04:23:16;3.30;99.90
14172;DHT22;7165;52.388;4.928;2023-04-03T04:25:44;3.30;99.90
14172;DHT22;7165;52.388;4.928;2023-04-03T04:28:11;3.30;99.90
14172;DHT22;7165;52.388;4.928;2023-04-03T04:30:37;3.30;99.90
14172;DHT22;7165;52.388;4.928;2023-04-03T04:33:04;3.30;99.90
14172;DHT22;7165;52.388;4.928;2023-04-03T04:35:32;3.20;99.90
14172;DHT22;7165;52.388;4.928;2023-04-03T04:37:58;3.20;99.90
14172;DHT22;7165;52.388;4.928;2023-04-03T04:40:27;3.20;99.90
14172;DHT22;7165;52.388;4.928;2023-04-03T04:42:54;3.20;99.90
14172;DHT22;7165;52.388;4.928;2023-04-03T04:45:20;3.10;99.90
14172;DHT22;7165;52.388;4.928;2023-04-03T04:47:47;3.10;99.90
14172;DHT22;7165;52.388;4.928;2023-04-03T04:50:17;3.10;99.90
14172;DHT22;7165;52.388;4.928;2023-04-03T04:52:43;3.10;99.90
14172;DHT22;7165;52.388;4.928;2023-04-03T04:55:10;3.10;99.90
14172;DHT22;7165;52.388;4.928;2023-04-03T04:57:38;3.10;99.90
14172;DHT22;7165;52.388;4.928;2023-04-03T05:00:06;3.10;99.90
14172;DHT22;7165;52.388;4.928;2023-04-03T05:02:33;3.00;99.90
14172;DHT22;7165;52.388;4.928;2023-04-03T05:04:59;3.10;99.90
14172;DHT22;7165;52.388;4.928;2023-04-03T05:07:26;3.10;99.90
14172;DHT22;7165;52.388;4.928;2023-04-03T05:09:53;3.10;99.90
14172;DHT22;7165;52.388;4.928;2023-04-03T05:12:20;3.10;99.90
14172;DHT22;7165;52.388;4.928;2023-04-03T05:14:48;3.10;99.90
14172;DHT22;7165;52.388;4.928;2023-04-03T05:17:14;3.10;99.90
14172;DHT22;7165;52.388;4.928;2023-04-03T05:19:41;3.10;99.90
14172;DHT22;7165;52.388;4.928;2023-04-03T05:22:07;3.10;99.90
14172;DHT22;7165;52.388;4.928;2023-04-03T05:24:34;3.00;99.90
14172;DHT22;7165;52.388;4.928;2023-04-03T05:27:01;3.00;99.90
14172;DHT22;7165;52.388;4.928;2023-04-03T05:29:27;3.00;99.90
14172;DHT22;7165;52.388;4.928;2023-04-03T05:31:55;3.00;99.90
14172;DHT22;7165;52.388;4.928;2023-04-03T05:34:22;3.00;99.90
14172;DHT22;7165;52.388;4.928;2023-04-03T05:36:49;3.00;99.90
14172;DHT22;7165;52.388;4.928;2023-04-03T05:39:15;3.00;99.90
14172;DHT22;7165;52.388;4.928;2023-04-03T05:41:42;3.00;99.90
14172;DHT22;7165;52.388;4.928;2023-04-03T05:44:09;2.90;99.90
14172;DHT22;7165;52.388;4.928;2023-04-03T05:46:35;2.90;99.90
14172;DHT22;7165;52.388;4.928;2023-04-03T05:49:03;3.00;99.90
14172;DHT22;7165;52.388;4.928;2023-04-03T05:51:33;3.00;99.90
14172;DHT22;7165;52.388;4.928;2023-04-03T05:54:04;3.00;99.90
14172;DHT22;7165;52.388;4.928;2023-04-03T05:56:33;3.10;99.90
14172;DHT22;7165;52.388;4.928;2023-04-03T05:59:00;3.10;99.90
14172;DHT22;7165;52.388;4.928;2023-04-03T06:01:26;3.10;99.90
14172;DHT22;7165;52.388;4.928;2023-04-03T06:03:53;3.10;99.90
14172;DHT22;7165;52.388;4.928;2023-04-03T06:06:22;3.10;99.90
14172;DHT22;7165;52.388;4.928;2023-04-03T06:08:49;3.10;99.90
14172;DHT22;7165;52.388;4.928;2023-04-03T06:11:15;3.10;99.90
14172;DHT22;7165;52.388;4.928;2023-04-03T06:13:42;3.20;99.90
14172;DHT22;7165;52.388;4.928;2023-04-03T06:16:09;3.30;99.90
14172;DHT22;7165;52.388;4.928;2023-04-03T06:18:39;3.30;99.90
14172;DHT22;7165;52.388;4.928;2023-04-03T06:21:06;3.40;99.90
14172;DHT22;7165;52.388;4.928;2023-04-03T06:23:34;3.40;99.90
14172;DHT22;7165;52.388;4.928;2023-04-03T06:26:01;3.50;99.90
14172;DHT22;7165;52.388;4.928;2023-04-03T06:28:28;3.60;99.90
14172;DHT22;7165;52.388;4.928;2023-04-03T06:30:54;3.60;99.90
14172;DHT22;7165;52.388;4.928;2023-04-03T06:33:21;3.70;99.90
14172;DHT22;7165;52.388;4.928;2023-04-03T06:35:48;3.70;99.90
14172;DHT22;7165;52.388;4.928;2023-04-03T06:38:15;3.80;99.90
14172;DHT22;7165;52.388;4.928;2023-04-03T06:40:43;3.80;99.90
14172;DHT22;7165;52.388;4.928;2023-04-03T06:43:09;3.90;99.90
14172;DHT22;7165;52.388;4.928;2023-04-03T06:45:36;3.90;99.90
14172;DHT22;7165;52.388;4.928;2023-04-03T06:48:03;4.00;99.90
14172;DHT22;7165;52.388;4.928;2023-04-03T06:50:30;4.00;99.90
14172;DHT22;7165;52.388;4.928;2023-04-03T06:52:57;4.10;99.90
14172;DHT22;7165;52.388;4.928;2023-04-03T06:55:24;4.10;99.90
14172;DHT22;7165;52.388;4.928;2023-04-03T06:57:52;4.10;99.90
14172;DHT22;7165;52.388;4.928;2023-04-03T07:00:19;4.10;99.90
14172;DHT22;7165;52.388;4.928;2023-04-03T07:02:46;4.20;99.90
14172;DHT22;7165;52.388;4.928;2023-04-03T07:05:13;4.20;99.90
14172;DHT22;7165;52.388;4.928;2023-04-03T07:07:40;4.30;99.90
14172;DHT22;7165;52.388;4.928;2023-04-03T07:10:07;4.40;99.90
14172;DHT22;7165;52.388;4.928;2023-04-03T07:12:34;4.40;99.90
14172;DHT22;7165;52.388;4.928;2023-04-03T07:15:02;4.50;99.90
14172;DHT22;7165;52.388;4.928;2023-04-03T07:17:29;4.50;99.90
14172;DHT22;7165;52.388;4.928;2023-04-03T07:19:56;4.50;99.90
14172;DHT22;7165;52.388;4.928;2023-04-03T07:22:23;4.60;99.90
14172;DHT22;7165;52.388;4.928;2023-04-03T07:24:49;4.70;99.90
14172;DHT22;7165;52.388;4.928;2023-04-03T07:27:16;4.80;99.90
14172;DHT22;7165;52.388;4.928;2023-04-03T07:29:44;4.90;99.90
14172;DHT22;7165;52.388;4.928;2023-04-03T07:32:12;4.90;99.90
14172;DHT22;7165;52.388;4.928;2023-04-03T07:34:38;5.00;99.90
14172;DHT22;7165;52.388;4.928;2023-04-03T07:37:05;5.10;99.90
14172;DHT22;7165;52.388;4.928;2023-04-03T07:39:32;5.10;99.90
14172;DHT22;7165;52.388;4.928;2023-04-03T07:41:58;5.20;99.90
14172;DHT22;7165;52.388;4.928;2023-04-03T07:44:25;5.20;99.90
14172;DHT22;7165;52.388;4.928;2023-04-03T07:46:52;5.30;99.90
14172;DHT22;7165;52.388;4.928;2023-04-03T07:49:21;5.40;99.90
14172;DHT22;7165;52.388;4.928;2023-04-03T07:51:49;5.40;99.90
14172;DHT22;7165;52.388;4.928;2023-04-03T07:54:16;5.50;99.90
14172;DHT22;7165;52.388;4.928;2023-04-03T07:56:43;5.60;99.90
14172;DHT22;7165;52.388;4.928;2023-04-03T07:59:10;5.70;99.90
14172;DHT22;7165;52.388;4.928;2023-04-03T08:01:37;5.80;99.90
14172;DHT22;7165;52.388;4.928;2023-04-03T08:04:04;5.80;99.90
14172;DHT22;7165;52.388;4.928;2023-04-03T08:06:33;5.90;99.90
14172;DHT22;7165;52.388;4.928;2023-04-03T08:09:02;6.00;99.90
14172;DHT22;7165;52.388;4.928;2023-04-03T08:11:30;6.10;99.90
14172;DHT22;7165;52.388;4.928;2023-04-03T08:13:57;6.20;99.90
14172;DHT22;7165;52.388;4.928;2023-04-03T08:16:24;6.20;99.90
14172;DHT22;7165;52.388;4.928;2023-04-03T08:18:52;6.30;99.90
14172;DHT22;7165;52.388;4.928;2023-04-03T08:21:19;6.40;99.90
14172;DHT22;7165;52.388;4.928;2023-04-03T08:23:49;6.50;99.90
14172;DHT22;7165;52.388;4.928;2023-04-03T08:26:17;6.60;99.90
14172;DHT22;7165;52.388;4.928;2023-04-03T08:28:44;6.60;99.90
14172;DHT22;7165;52.388;4.928;2023-04-03T08:31:13;6.70;99.90
14172;DHT22;7165;52.388;4.928;2023-04-03T08:33:40;6.80;99.90
14172;DHT22;7165;52.388;4.928;2023-04-03T08:36:15;6.90;99.90
14172;DHT22;7165;52.388;4.928;2023-04-03T08:38:42;7.00;99.90
14172;DHT22;7165;52.388;4.928;2023-04-03T08:41:15;7.00;99.90
14172;DHT22;7165;52.388;4.928;2023-04-03T08:43:56;7.00;99.90
14172;DHT22;7165;52.388;4.928;2023-04-03T08:46:25;7.10;99.90
14172;DHT22;7165;52.388;4.928;2023-04-03T08:48:53;7.20;99.90
14172;DHT22;7165;52.388;4.928;2023-04-03T08:51:20;7.30;99.90
14172;DHT22;7165;52.388;4.928;2023-04-03T08:53:56;7.40;99.90
14172;DHT22;7165;52.388;4.928;2023-04-03T08:56:24;7.40;99.90
14172;DHT22;7165;52.388;4.928;2023-04-03T08:58:55;7.50;99.90
14172;DHT22;7165;52.388;4.928;2023-04-03T09:01:25;7.60;99.90
14172;DHT22;7165;52.388;4.928;2023-04-03T09:03:53;7.60;99.90
14172;DHT22;7165;52.388;4.928;2023-04-03T09:06:20;7.80;99.90
14172;DHT22;7165;52.388;4.928;2023-04-03T09:08:49;7.80;99.90
14172;DHT22;7165;52.388;4.928;2023-04-03T09:11:18;7.90;99.90
14172;DHT22;7165;52.388;4.928;2023-04-03T09:13:52;7.90;99.90
14172;DHT22;7165;52.388;4.928;2023-04-03T09:16:26;8.00;99.90
14172;DHT22;7165;52.388;4.928;2023-04-03T09:18:56;8.10;99.90
14172;DHT22;7165;52.388;4.928;2023-04-03T09:21:25;8.10;99.90
14172;DHT22;7165;52.388;4.928;2023-04-03T09:23:58;8.20;99.90
14172;DHT22;7165;52.388;4.928;2023-04-03T09:26:26;8.30;99.90
14172;DHT22;7165;52.388;4.928;2023-04-03T09:28:57;8.40;99.90
14172;DHT22;7165;52.388;4.928;2023-04-03T09:31:26;8.50;99.90
14172;DHT22;7165;52.388;4.928;2023-04-03T09:33:54;8.60;99.90
14172;DHT22;7165;52.388;4.928;2023-04-03T09:36:36;8.60;99.90
14172;DHT22;7165;52.388;4.928;2023-04-03T09:39:03;8.50;99.90
14172;DHT22;7165;52.388;4.928;2023-04-03T09:41:31;8.60;99.90
14172;DHT22;7165;52.388;4.928;2023-04-03T09:43:59;8.60;99.90
14172;DHT22;7165;52.388;4.928;2023-04-03T09:46:29;8.70;99.90
14172;DHT22;7165;52.388;4.928;2023-04-03T09:48:57;8.80;99.90
14172;DHT22;7165;52.388;4.928;2023-04-03T09:51:25;9.10;99.90
14172;DHT22;7165;52.388;4.928;2023-04-03T09:53:52;9.20;99.90
14172;DHT22;7165;52.388;4.928;2023-04-03T09:56:20;9.20;99.90
14172;DHT22;7165;52.388;4.928;2023-04-03T09:58:48;9.50;99.90
14172;DHT22;7165;52.388;4.928;2023-04-03T10:01:25;9.60;99.90
14172;DHT22;7165;52.388;4.928;2023-04-03T10:04:03;9.60;99.90
14172;DHT22;7165;52.388;4.928;2023-04-03T10:06:31;9.70;99.90
14172;DHT22;7165;52.388;4.928;2023-04-03T10:08:58;9.80;99.90
14172;DHT22;7165;52.388;4.928;2023-04-03T10:11:25;9.90;99.90
14172;DHT22;7165;52.388;4.928;2023-04-03T10:13:52;10.00;99.90
14172;DHT22;7165;52.388;4.928;2023-04-03T10:16:21;10.20;99.90
14172;DHT22;7165;52.388;4.928;2023-04-03T10:18:56;10.40;99.90
14172;DHT22;7165;52.388;4.928;2023-04-03T10:21:29;10.40;98.60
14172;DHT22;7165;52.388;4.928;2023-04-03T10:24:00;10.40;99.90
14172;DHT22;7165;52.388;4.928;2023-04-03T10:26:29;10.40;98.80
14172;DHT22;7165;52.388;4.928;2023-04-03T10:29:01;10.40;99.30
14172;DHT22;7165;52.388;4.928;2023-04-03T10:31:29;10.60;99.90
14172;DHT22;7165;52.388;4.928;2023-04-03T10:34:01;10.70;99.50
14172;DHT22;7165;52.388;4.928;2023-04-03T10:36:34;10.70;98.80
14172;DHT22;7165;52.388;4.928;2023-04-03T10:39:06;10.80;99.20
14172;DHT22;7165;52.388;4.928;2023-04-03T10:41:39;10.80;97.60
14172;DHT22;7165;52.388;4.928;2023-04-03T10:44:12;10.90;97.00
14172;DHT22;7165;52.388;4.928;2023-04-03T10:46:44;11.10;95.80
14172;DHT22;7165;52.388;4.928;2023-04-03T10:49:17;11.30;95.90
14172;DHT22;7165;52.388;4.928;2023-04-03T10:51:48;11.40;96.80
14172;DHT22;7165;52.388;4.928;2023-04-03T10:54:22;11.40;94.20
14172;DHT22;7165;52.388;4.928;2023-04-03T10:56:53;11.40;93.40
14172;DHT22;7165;52.388;4.928;2023-04-03T10:59:26;11.20;92.70
14172;DHT22;7165;52.388;4.928;2023-04-03T11:01:56;10.90;92.20
14172;DHT22;7165;52.388;4.928;2023-04-03T11:04:30;11.10;94.70
14172;DHT22;7165;52.388;4.928;2023-04-03T11:07:01;11.10;91.20
14172;DHT22;7165;52.388;4.928;2023-04-03T11:09:31;11.10;93.30
14172;DHT22;7165;52.388;4.928;2023-04-03T11:12:05;11.20;94.30
14172;DHT22;7165;52.388;4.928;2023-04-03T11:14:36;11.40;93.00
14172;DHT22;7165;52.388;4.928;2023-04-03T11:17:15;11.40;91.40
14172;DHT22;7165;52.388;4.928;2023-04-03T11:19:50;11.40;92.10
14172;DHT22;7165;52.388;4.928;2023-04-03T11:22:23;11.20;90.30
14172;DHT22;7165;52.388;4.928;2023-04-03T11:25:02;11.30;92.10
14172;DHT22;7165;52.388;4.928;2023-04-03T11:27:35;11.50;92.00
14172;DHT22;7165;52.388;4.928;2023-04-03T11:30:06;11.40;92.10
14172;DHT22;7165;52.388;4.928;2023-04-03T11:32:48;11.60;92.00
14172;DHT22;7165;52.388;4.928;2023-04-03T11:35:19;11.80;91.50
14172;DHT22;7165;52.388;4.928;2023-04-03T11:37:48;11.80;90.30
14172;DHT22;7165;52.388;4.928;2023-04-03T11:40:24;11.70;91.30
14172;DHT22;7165;52.388;4.928;2023-04-03T11:42:53;11.80;91.70
14172;DHT22;7165;52.388;4.928;2023-04-03T11:45:25;12.00;92.40
14172;DHT22;7165;52.388;4.928;2023-04-03T11:47:53;12.40;91.60
14172;DHT22;7165;52.388;4.928;2023-04-03T11:50:37;12.40;87.60
14172;DHT22;7165;52.388;4.928;2023-04-03T11:55:54;12.00;90.80
14172;DHT22;7165;52.388;4.928;2023-04-03T11:58:21;12.00;86.10
14172;DHT22;7165;52.388;4.928;2023-04-03T12:00:58;12.00;87.80
14172;DHT22;7165;52.388;4.928;2023-04-03T12:03:32;11.90;90.90
14172;DHT22;7165;52.388;4.928;2023-04-03T12:08:44;12.50;86.80
14172;DHT22;7165;52.388;4.928;2023-04-03T12:11:14;12.60;88.10
14172;DHT22;7165;52.388;4.928;2023-04-03T12:13:42;12.60;89.00
14172;DHT22;7165;52.388;4.928;2023-04-03T12:16:28;12.70;87.00
14172;DHT22;7165;52.388;4.928;2023-04-03T12:18:56;12.80;85.60
14172;DHT22;7165;52.388;4.928;2023-04-03T12:21:24;12.70;87.50
14172;DHT22;7165;52.388;4.928;2023-04-03T12:24:24;12.80;88.30
14172;DHT22;7165;52.388;4.928;2023-04-03T12:27:01;13.00;86.40
14172;DHT22;7165;52.388;4.928;2023-04-03T12:29:29;13.10;90.30
14172;DHT22;7165;52.388;4.928;2023-04-03T12:32:03;13.10;85.80
14172;DHT22;7165;52.388;4.928;2023-04-03T12:34:44;12.90;82.30
14172;DHT22;7165;52.388;4.928;2023-04-03T12:37:17;12.80;84.50
14172;DHT22;7165;52.388;4.928;2023-04-03T12:39:53;12.90;85.80
14172;DHT22;7165;52.388;4.928;2023-04-03T12:42:24;12.90;83.80
14172;DHT22;7165;52.388;4.928;2023-04-03T12:44:55;12.90;82.70
14172;DHT22;7165;52.388;4.928;2023-04-03T12:47:25;12.90;86.00
14172;DHT22;7165;52.388;4.928;2023-04-03T12:49:53;12.80;81.30
14172;DHT22;7165;52.388;4.928;2023-04-03T12:52:25;12.30;84.10
14172;DHT22;7165;52.388;4.928;2023-04-03T12:54:54;12.40;86.60
14172;DHT22;7165;52.388;4.928;2023-04-03T12:57:23;12.70;85.70
14172;DHT22;7165;52.388;4.928;2023-04-03T12:59:50;13.10;84.80
14172;DHT22;7165;52.388;4.928;2023-04-03T13:02:21;13.10;86.10
14172;DHT22;7165;52.388;4.928;2023-04-03T13:04:49;13.20;83.80
14172;DHT22;7165;52.388;4.928;2023-04-03T13:07:20;13.30;82.60
14172;DHT22;7165;52.388;4.928;2023-04-03T13:09:56;13.20;81.40
14172;DHT22;7165;52.388;4.928;2023-04-03T13:12:24;12.90;84.40
14172;DHT22;7165;52.388;4.928;2023-04-03T13:14:51;13.20;89.00
14172;DHT22;7165;52.388;4.928;2023-04-03T13:17:18;13.50;85.70
14172;DHT22;7165;52.388;4.928;2023-04-03T13:19:45;13.50;82.00
14172;DHT22;7165;52.388;4.928;2023-04-03T13:22:16;13.60;84.20
14172;DHT22;7165;52.388;4.928;2023-04-03T13:24:46;13.70;85.60
14172;DHT22;7165;52.388;4.928;2023-04-03T13:27:14;13.70;83.40
14172;DHT22;7165;52.388;4.928;2023-04-03T13:29:41;13.70;85.60
14172;DHT22;7165;52.388;4.928;2023-04-03T13:32:13;14.10;89.10
14172;DHT22;7165;52.388;4.928;2023-04-03T13:34:44;14.40;84.50
14172;DHT22;7165;52.388;4.928;2023-04-03T13:37:19;14.50;81.80
14172;DHT22;7165;52.388;4.928;2023-04-03T13:39:55;14.40;83.00
14172;DHT22;7165;52.388;4.928;2023-04-03T13:42:24;13.90;82.60
14172;DHT22;7165;52.388;4.928;2023-04-03T13:45:06;13.60;85.80
14172;DHT22;7165;52.388;4.928;2023-04-03T13:47:37;13.60;82.70
14172;DHT22;7165;52.388;4.928;2023-04-03T13:50:12;13.30;81.50
14172;DHT22;7165;52.388;4.928;2023-04-03T13:52:40;13.10;83.50
14172;DHT22;7165;52.388;4.928;2023-04-03T13:55:15;13.50;86.40
14172;DHT22;7165;52.388;4.928;2023-04-03T13:57:49;13.70;84.80
14172;DHT22;7165;52.388;4.928;2023-04-03T14:00:20;13.70;85.40
14172;DHT22;7165;52.388;4.928;2023-04-03T14:02:47;13.40;83.20
14172;DHT22;7165;52.388;4.928;2023-04-03T14:05:14;13.30;84.30
14172;DHT22;7165;52.388;4.928;2023-04-03T14:07:43;13.50;87.10
14172;DHT22;7165;52.388;4.928;2023-04-03T14:10:10;13.70;84.50
14172;DHT22;7165;52.388;4.928;2023-04-03T14:12:38;13.40;85.60
14172;DHT22;7165;52.388;4.928;2023-04-03T14:15:16;13.30;85.10
14172;DHT22;7165;52.388;4.928;2023-04-03T14:17:44;13.10;85.90
14172;DHT22;7165;52.388;4.928;2023-04-03T14:20:15;13.20;86.80
14172;DHT22;7165;52.388;4.928;2023-04-03T14:22:42;13.30;86.20
14172;DHT22;7165;52.388;4.928;2023-04-03T14:25:08;13.40;89.80
14172;DHT22;7165;52.388;4.928;2023-04-03T14:27:37;13.60;86.10
14172;DHT22;7165;52.388;4.928;2023-04-03T14:30:09;13.60;84.00
14172;DHT22;7165;52.388;4.928;2023-04-03T14:32:38;13.60;86.90
14172;DHT22;7165;52.388;4.928;2023-04-03T14:35:05;13.70;83.80
14172;DHT22;7165;52.388;4.928;2023-04-03T14:37:32;13.60;83.50
14172;DHT22;7165;52.388;4.928;2023-04-03T14:40:00;13.60;86.10
14172;DHT22;7165;52.388;4.928;2023-04-03T14:42:30;13.80;85.80
14172;DHT22;7165;52.388;4.928;2023-04-03T14:44:58;13.80;85.40
14172;DHT22;7165;52.388;4.928;2023-04-03T14:47:29;13.90;86.80
14172;DHT22;7165;52.388;4.928;2023-04-03T14:49:56;14.10;86.40
14172;DHT22;7165;52.388;4.928;2023-04-03T14:52:25;14.10;84.00
14172;DHT22;7165;52.388;4.928;2023-04-03T14:54:53;13.90;85.50
14172;DHT22;7165;52.388;4.928;2023-04-03T14:57:23;13.80;85.20
14172;DHT22;7165;52.388;4.928;2023-04-03T14:59:50;13.80;84.50
14172;DHT22;7165;52.388;4.928;2023-04-03T15:02:29;14.00;85.80
14172;DHT22;7165;52.388;4.928;2023-04-03T15:04:56;14.10;84.50
14172;DHT22;7165;52.388;4.928;2023-04-03T15:07:23;14.20;86.10
14172;DHT22;7165;52.388;4.928;2023-04-03T15:09:50;14.50;85.40
14172;DHT22;7165;52.388;4.928;2023-04-03T15:12:17;14.50;84.20
14172;DHT22;7165;52.388;4.928;2023-04-03T15:14:44;14.60;83.30
14172;DHT22;7165;52.388;4.928;2023-04-03T15:17:12;14.30;81.20
14172;DHT22;7165;52.388;4.928;2023-04-03T15:19:41;14.10;83.40
14172;DHT22;7165;52.388;4.928;2023-04-03T15:22:09;14.30;83.20
14172;DHT22;7165;52.388;4.928;2023-04-03T15:24:38;14.10;83.80
14172;DHT22;7165;52.388;4.928;2023-04-03T15:27:05;14.20;83.80
14172;DHT22;7165;52.388;4.928;2023-04-03T15:29:32;14.30;84.70
14172;DHT22;7165;52.388;4.928;2023-04-03T15:31:58;14.30;83.00
14172;DHT22;7165;52.388;4.928;2023-04-03T15:34:25;14.30;86.20
14172;DHT22;7165;52.388;4.928;2023-04-03T15:36:53;13.90;83.90
14172;DHT22;7165;52.388;4.928;2023-04-03T15:39:19;13.70;84.40
14172;DHT22;7165;52.388;4.928;2023-04-03T15:41:46;13.60;85.20
14172;DHT22;7165;52.388;4.928;2023-04-03T15:44:12;13.80;86.30
14172;DHT22;7165;52.388;4.928;2023-04-03T15:46:43;13.80;86.10
14172;DHT22;7165;52.388;4.928;2023-04-03T15:49:09;14.00;87.80
14172;DHT22;7165;52.388;4.928;2023-04-03T15:51:36;14.30;85.80
14172;DHT22;7165;52.388;4.928;2023-04-03T15:54:04;14.60;84.00
14172;DHT22;7165;52.388;4.928;2023-04-03T15:56:30;14.70;82.30
14172;DHT22;7165;52.388;4.928;2023-04-03T15:58:57;14.80;80.90
14172;DHT22;7165;52.388;4.928;2023-04-03T16:01:23;14.60;82.80
14172;DHT22;7165;52.388;4.928;2023-04-03T16:03:50;14.60;85.40
14172;DHT22;7165;52.388;4.928;2023-04-03T16:06:16;14.50;84.20
14172;DHT22;7165;52.388;4.928;2023-04-03T16:08:44;14.50;84.40
14172;DHT22;7165;52.388;4.928;2023-04-03T16:11:12;14.20;86.00
14172;DHT22;7165;52.388;4.928;2023-04-03T16:13:38;14.10;87.90